createdAt,value
2023-02-07T00:00:40.917Z,9.60
2023-02-07T00:03:43.895Z,10.03
2023-02-07T00:06:46.017Z,9.07
2023-02-07T00:09:48.040Z,9.50
2023-02-07T00:12:50.539Z,9.70
2023-02-07T00:15:52.566Z,10.00
2023-02-07T00:18:55.336Z,10.33
2023-02-07T00:21:57.397Z,10.97
2023-02-07T00:24:59.338Z,10.63
2023-02-07T00:28:01.512Z,10.00
2023-02-07T00:31:16.293Z,9.10
2023-02-07T00:34:18.460Z,9.30
2023-02-07T00:37:20.514Z,8.90
2023-02-07T00:40:23.717Z,11.23
2023-02-07T00:43:30.014Z,9.97
2023-02-07T00:46:33.004Z,10.90
2023-02-07T00:49:35.045Z,10.30
2023-02-07T00:52:37.268Z,10.63
2023-02-07T00:55:39.635Z,10.47
2023-02-07T00:58:42.837Z,10.13
2023-02-07T01:01:44.854Z,10.83
2023-02-07T01:04:47.034Z,10.10
2023-02-07T01:07:49.144Z,10.43
2023-02-07T01:10:51.192Z,11.33
2023-02-07T01:13:53.693Z,11.60
2023-02-07T01:16:57.585Z,10.80
2023-02-07T01:20:00.458Z,11.37
2023-02-07T01:23:03.495Z,10.70
2023-02-07T01:26:06.044Z,10.80
2023-02-07T01:29:08.989Z,11.67
2023-02-07T01:32:10.998Z,11.10
2023-02-07T01:35:13.035Z,11.50
2023-02-07T01:38:16.144Z,12.43
2023-02-07T01:41:18.541Z,12.43
2023-02-07T01:44:23.598Z,12.40
2023-02-07T01:47:25.904Z,13.13
2023-02-07T01:50:28.541Z,11.40
2023-02-07T01:53:31.716Z,12.13
2023-02-07T01:56:38.024Z,12.77
2023-02-07T01:59:44.317Z,12.93
2023-02-07T02:02:46.503Z,12.43
2023-02-07T02:05:54.406Z,12.63
2023-02-07T02:08:59.291Z,12.73
2023-02-07T02:12:20.681Z,12.87
2023-02-07T02:16:03.913Z,12.03
2023-02-07T02:19:24.622Z,14.23
2023-02-07T02:23:00.377Z,14.30
2023-02-07T02:26:20.409Z,15.23
2023-02-07T02:30:07.676Z,16.07
2023-02-07T02:33:24.375Z,15.97
2023-02-07T02:36:33.623Z,17.00
2023-02-07T02:39:39.363Z,16.90
2023-02-07T02:42:48.145Z,18.83
2023-02-07T02:46:03.574Z,19.43
2023-02-07T02:49:10.435Z,16.27
2023-02-07T02:52:13.649Z,16.57
2023-02-07T02:55:18.181Z,17.80
2023-02-07T02:58:40.496Z,15.83
2023-02-07T03:01:51.610Z,16.60
2023-02-07T03:05:08.566Z,16.63
2023-02-07T03:08:24.239Z,16.33
2023-02-07T03:11:30.689Z,16.33
2023-02-07T03:14:55.646Z,16.40
2023-02-07T03:18:05.338Z,16.33
2023-02-07T03:21:39.311Z,16.23
2023-02-07T03:24:45.695Z,17.57
2023-02-07T03:27:50.938Z,16.07
2023-02-07T03:30:57.032Z,17.00
2023-02-07T03:34:10.085Z,15.57
2023-02-07T03:37:32.630Z,17.67
2023-02-07T03:40:42.980Z,19.20
2023-02-07T03:43:45.728Z,18.90
2023-02-07T03:46:49.900Z,20.50
2023-02-07T03:49:52.021Z,17.60
2023-02-07T03:52:54.162Z,18.77
2023-02-07T03:55:56.146Z,18.00
2023-02-07T03:58:58.161Z,18.07
2023-02-07T04:02:00.269Z,18.00
2023-02-07T04:05:02.336Z,18.23
2023-02-07T04:08:04.523Z,18.73
2023-02-07T04:11:06.573Z,18.60
2023-02-07T04:14:08.618Z,18.83
2023-02-07T04:17:10.694Z,19.67
2023-02-07T04:20:13.001Z,19.47
2023-02-07T04:23:15.010Z,19.63
2023-02-07T04:26:17.071Z,18.50
2023-02-07T04:29:19.181Z,19.53
2023-02-07T04:32:21.255Z,18.97
2023-02-07T04:35:23.528Z,19.30
2023-02-07T04:38:26.842Z,18.90
2023-02-07T04:41:32.486Z,20.20
2023-02-07T04:44:34.986Z,18.50
2023-02-07T04:47:36.987Z,19.50
2023-02-07T04:50:39.025Z,19.90
2023-02-07T04:53:41.318Z,19.90
2023-02-07T04:56:43.367Z,19.60
2023-02-07T04:59:45.388Z,18.57
2023-02-07T05:02:47.571Z,17.37
2023-02-07T05:05:49.974Z,19.50
2023-02-07T05:08:52.108Z,19.30
2023-02-07T05:11:54.221Z,19.97
2023-02-07T05:14:58.388Z,17.93
2023-02-07T05:18:01.412Z,17.40
2023-02-07T05:21:03.510Z,19.43
2023-02-07T05:24:05.781Z,16.83
2023-02-07T05:27:07.840Z,18.03
2023-02-07T05:30:10.705Z,18.80
2023-02-07T05:33:12.780Z,27.50
2023-02-07T05:36:14.794Z,23.47
2023-02-07T05:39:16.922Z,19.47
2023-02-07T05:42:19.068Z,18.10
2023-02-07T05:45:21.911Z,16.67
2023-02-07T05:48:23.939Z,17.20
2023-02-07T05:51:25.962Z,17.63
2023-02-07T05:54:28.005Z,16.27
2023-02-07T05:57:30.131Z,16.80
2023-02-07T06:00:32.232Z,18.63
2023-02-07T06:03:34.284Z,17.90
2023-02-07T06:06:36.320Z,17.17
2023-02-07T06:09:38.390Z,16.13
2023-02-07T06:12:40.786Z,16.83
2023-02-07T06:15:42.831Z,16.30
2023-02-07T06:18:44.867Z,19.30
2023-02-07T06:21:47.157Z,17.43
2023-02-07T06:24:49.244Z,17.47
2023-02-07T06:27:51.382Z,18.20
2023-02-07T06:30:53.901Z,16.90
2023-02-07T06:33:56.016Z,16.60
2023-02-07T06:36:58.149Z,16.03
2023-02-07T06:40:00.171Z,18.07
2023-02-07T06:43:02.177Z,16.40
2023-02-07T06:46:04.986Z,18.23
2023-02-07T06:49:07.097Z,18.20
2023-02-07T06:52:09.122Z,19.43
2023-02-07T06:55:11.184Z,16.33
2023-02-07T06:58:13.259Z,17.20
2023-02-07T07:01:20.341Z,18.90
2023-02-07T07:04:22.450Z,17.57
2023-02-07T07:07:24.470Z,18.40
2023-02-07T07:10:26.582Z,18.83
2023-02-07T07:13:28.689Z,15.23
2023-02-07T07:16:30.770Z,16.73
2023-02-07T07:19:32.916Z,16.87
2023-02-07T07:22:35.287Z,17.77
2023-02-07T07:25:37.665Z,16.90
2023-02-07T07:28:39.891Z,16.73
2023-02-07T07:31:41.955Z,17.07
2023-02-07T07:34:44.064Z,15.77
2023-02-07T07:37:46.062Z,16.77
2023-02-07T07:40:48.042Z,18.10
2023-02-07T07:43:50.079Z,15.87
2023-02-07T07:46:53.113Z,15.60
2023-02-07T07:49:55.358Z,16.67
2023-02-07T07:52:57.346Z,15.37
2023-02-07T07:55:59.491Z,16.00
2023-02-07T07:59:11.998Z,15.10
2023-02-07T08:02:14.472Z,16.07
2023-02-07T08:05:17.136Z,15.10
2023-02-07T08:08:22.451Z,16.13
2023-02-07T08:11:25.150Z,15.93
2023-02-07T08:14:27.130Z,15.93
2023-02-07T08:17:29.352Z,15.67
2023-02-07T08:20:31.612Z,14.97
2023-02-07T08:23:34.540Z,15.73
2023-02-07T08:26:36.535Z,16.70
2023-02-07T08:29:38.718Z,16.10
2023-02-07T08:32:42.389Z,15.30
2023-02-07T08:35:44.829Z,16.23
2023-02-07T08:38:46.823Z,15.37
2023-02-07T08:41:48.864Z,15.37
2023-02-07T08:44:51.206Z,16.73
2023-02-07T08:47:53.168Z,15.47
2023-02-07T08:50:56.199Z,14.63
2023-02-07T08:53:58.185Z,17.57
2023-02-07T08:57:00.231Z,15.93
2023-02-07T09:00:02.599Z,16.17
2023-02-07T09:03:05.322Z,15.57
2023-02-07T09:06:07.470Z,16.47
2023-02-07T09:09:10.666Z,15.63
2023-02-07T09:12:13.597Z,15.50
2023-02-07T09:15:15.620Z,17.20
2023-02-07T09:18:17.664Z,16.07
2023-02-07T09:21:20.029Z,14.87
2023-02-07T09:24:22.310Z,16.17
2023-02-07T09:27:25.498Z,15.23
2023-02-07T09:30:27.598Z,16.20
2023-02-07T09:33:29.956Z,14.77
2023-02-07T09:36:32.625Z,14.33
2023-02-07T09:39:37.053Z,15.13
2023-02-07T09:43:14.517Z,15.07
2023-02-07T09:46:25.900Z,13.43
2023-02-07T09:49:30.834Z,12.90
2023-02-07T09:52:49.289Z,13.60
2023-02-07T09:55:56.585Z,14.77
2023-02-07T09:59:25.157Z,14.77
2023-02-07T10:02:36.669Z,13.27
2023-02-07T10:05:51.806Z,13.00
2023-02-07T10:08:59.991Z,13.43
2023-02-07T10:12:14.043Z,13.73
2023-02-07T10:15:27.969Z,14.90
2023-02-07T10:18:51.139Z,12.80
2023-02-07T10:22:06.893Z,14.33
2023-02-07T10:25:27.501Z,13.40
2023-02-07T10:28:32.593Z,13.63
2023-02-07T10:31:39.266Z,13.17
2023-02-07T10:34:47.925Z,11.77
2023-02-07T10:37:53.982Z,12.63
2023-02-07T10:41:06.787Z,12.63
2023-02-07T10:44:19.290Z,12.30
2023-02-07T10:47:22.985Z,13.23
2023-02-07T10:50:30.124Z,12.70
2023-02-07T10:53:54.942Z,12.93
2023-02-07T10:57:02.851Z,12.83
2023-02-07T11:00:11.282Z,12.97
2023-02-07T11:03:26.475Z,11.80
2023-02-07T11:06:34.363Z,11.63
2023-02-07T11:09:38.107Z,11.60
2023-02-07T11:12:50.024Z,12.67
2023-02-07T11:16:04.699Z,11.83
2023-02-07T11:19:07.809Z,12.60
2023-02-07T11:22:17.850Z,12.03
2023-02-07T11:25:28.553Z,11.53
2023-02-07T11:28:33.019Z,13.17
2023-02-07T11:31:37.845Z,12.00
2023-02-07T11:34:51.561Z,12.77
2023-02-07T11:38:06.190Z,11.10
2023-02-07T11:41:21.972Z,11.30
2023-02-07T11:44:27.621Z,11.60
2023-02-07T11:47:31.904Z,12.03
2023-02-07T11:50:41.201Z,13.50
2023-02-07T11:53:51.758Z,12.67
2023-02-07T11:57:10.667Z,13.03
2023-02-07T12:00:24.806Z,13.93
2023-02-07T12:03:35.034Z,13.10
2023-02-07T12:07:01.528Z,11.43
2023-02-07T12:10:06.996Z,13.47
2023-02-07T12:13:20.995Z,12.77
2023-02-07T12:16:26.070Z,12.57
2023-02-07T12:19:37.755Z,12.07
2023-02-07T12:22:58.791Z,11.70
2023-02-07T12:26:19.077Z,11.57
2023-02-07T12:29:43.731Z,12.47
2023-02-07T12:33:27.368Z,12.23
2023-02-07T12:36:39.427Z,11.27
2023-02-07T12:39:52.929Z,12.43
2023-02-07T12:42:59.891Z,10.40
2023-02-07T12:46:01.950Z,12.03
2023-02-07T12:49:24.251Z,13.77
2023-02-07T12:52:50.831Z,13.90
2023-02-07T12:56:08.936Z,12.50
2023-02-07T12:59:26.144Z,12.60
2023-02-07T13:03:11.181Z,11.83
2023-02-07T13:06:41.984Z,12.37
2023-02-07T13:09:55.733Z,12.23
2023-02-07T13:13:03.202Z,11.60
2023-02-07T13:16:18.451Z,12.33
2023-02-07T13:19:32.409Z,11.47
2023-02-07T13:22:47.276Z,11.13
2023-02-07T13:26:11.555Z,11.00
2023-02-07T13:29:16.655Z,12.13
2023-02-07T13:32:24.835Z,10.63
2023-02-07T13:35:31.723Z,11.77
2023-02-07T13:38:39.509Z,11.07
2023-02-07T13:42:25.316Z,12.23
2023-02-07T13:45:52.110Z,11.43
2023-02-07T13:49:03.738Z,11.60
2023-02-07T13:52:19.600Z,11.57
2023-02-07T13:55:39.739Z,11.70
2023-02-07T13:59:00.361Z,11.27
2023-02-07T14:02:07.350Z,11.33
2023-02-07T14:05:19.197Z,10.67
2023-02-07T14:08:25.139Z,10.43
2023-02-07T14:11:39.167Z,10.03
2023-02-07T14:14:42.174Z,10.23
2023-02-07T14:17:45.207Z,9.80
2023-02-07T14:20:49.582Z,9.17
2023-02-07T14:23:57.911Z,10.67
2023-02-07T14:27:01.486Z,9.97
2023-02-07T14:30:12.712Z,10.27
2023-02-07T14:33:19.919Z,8.70
2023-02-07T14:36:25.655Z,9.63
2023-02-07T14:39:33.484Z,8.40
2023-02-07T14:42:36.968Z,9.27
2023-02-07T14:46:02.985Z,8.67
2023-02-07T14:49:20.264Z,7.83
2023-02-07T14:52:27.302Z,8.03
2023-02-07T14:55:41.459Z,7.70
2023-02-07T14:58:47.063Z,8.40
2023-02-07T15:01:49.083Z,7.80
2023-02-07T15:04:51.135Z,8.37
2023-02-07T15:08:07.908Z,8.33
2023-02-07T15:11:14.000Z,8.23
2023-02-07T15:14:32.366Z,7.93
2023-02-07T15:17:43.992Z,8.27
2023-02-07T15:20:57.602Z,7.57
2023-02-07T15:24:08.937Z,7.80
2023-02-07T15:27:26.122Z,8.63
2023-02-07T15:30:29.227Z,8.00
2023-02-07T15:33:55.930Z,8.20
2023-02-07T15:37:19.396Z,8.33
2023-02-07T15:40:26.657Z,8.00
2023-02-07T15:43:34.992Z,8.57
2023-02-07T15:46:47.029Z,8.00
2023-02-07T15:50:01.807Z,8.20
2023-02-07T15:53:08.696Z,9.17
2023-02-07T15:56:15.354Z,9.00
2023-02-07T15:59:22.075Z,8.43
2023-02-07T16:02:37.272Z,11.30
2023-02-07T16:05:41.990Z,9.13
2023-02-07T16:08:45.467Z,8.87
2023-02-07T16:11:47.518Z,9.03
2023-02-07T16:14:49.870Z,9.07
2023-02-07T16:17:52.146Z,8.00
2023-02-07T16:20:54.214Z,9.13
2023-02-07T16:24:09.065Z,9.20
2023-02-07T16:27:30.350Z,8.20
2023-02-07T16:30:37.009Z,9.07
2023-02-07T16:33:40.085Z,8.83
2023-02-07T16:36:43.423Z,8.43
2023-02-07T16:39:45.817Z,8.60
2023-02-07T16:42:48.358Z,8.90
2023-02-07T16:45:50.538Z,8.50
2023-02-07T16:48:52.726Z,8.23
2023-02-07T16:51:54.916Z,8.63
2023-02-07T16:54:57.101Z,9.40
2023-02-07T16:58:07.772Z,10.83
2023-02-07T17:01:17.524Z,9.60
2023-02-07T17:04:20.450Z,9.03
2023-02-07T17:07:22.600Z,8.33
2023-02-07T17:10:34.994Z,9.13
2023-02-07T17:13:37.189Z,9.37
2023-02-07T17:16:41.178Z,13.80
2023-02-07T17:19:47.730Z,10.03
2023-02-07T17:22:51.965Z,9.40
2023-02-07T17:25:55.185Z,9.20
2023-02-07T17:28:57.289Z,8.77
2023-02-07T17:32:01.061Z,9.73
2023-02-07T17:35:04.009Z,9.10
2023-02-07T17:38:08.444Z,8.83
2023-02-07T17:41:17.013Z,9.23
2023-02-07T17:44:23.069Z,9.43
2023-02-07T17:47:26.199Z,9.90
2023-02-07T17:50:32.277Z,8.93
2023-02-07T17:53:37.179Z,9.23
2023-02-07T17:56:40.302Z,9.97
2023-02-07T17:59:44.149Z,9.73
2023-02-07T18:02:48.062Z,8.83
2023-02-07T18:05:51.113Z,9.73
2023-02-07T18:08:56.394Z,10.00
2023-02-07T18:12:02.320Z,9.27
2023-02-07T18:15:09.043Z,9.53
2023-02-07T18:18:14.680Z,9.73
2023-02-07T18:21:17.867Z,10.97
2023-02-07T18:24:20.370Z,9.73
2023-02-07T18:27:25.057Z,9.07
2023-02-07T18:30:28.678Z,10.27
2023-02-07T18:33:34.016Z,10.07
2023-02-07T18:36:40.895Z,10.43
2023-02-07T18:39:43.698Z,10.03
2023-02-07T18:42:46.879Z,10.27
2023-02-07T18:45:50.036Z,9.97
2023-02-07T18:48:57.037Z,10.27
2023-02-07T18:52:00.352Z,10.57
2023-02-07T18:55:03.819Z,10.40
2023-02-07T18:58:09.628Z,9.30
2023-02-07T19:01:18.121Z,10.07
2023-02-07T19:04:23.237Z,10.07
2023-02-07T19:07:26.548Z,10.90
2023-02-07T19:10:29.703Z,10.20
2023-02-07T19:13:34.324Z,11.37
2023-02-07T19:16:37.498Z,10.90
2023-02-07T19:19:40.628Z,11.30
2023-02-07T19:22:45.073Z,9.83
2023-02-07T19:25:49.438Z,10.50
2023-02-07T19:28:53.503Z,11.00
2023-02-07T19:32:09.552Z,10.57
2023-02-07T19:35:12.449Z,11.33
2023-02-07T19:38:17.558Z,9.37
2023-02-07T19:41:23.154Z,11.40
2023-02-07T19:44:26.440Z,11.07
2023-02-07T19:47:32.218Z,10.50
2023-02-07T19:50:36.575Z,10.60
2023-02-07T19:53:39.858Z,11.23
2023-02-07T19:56:45.269Z,10.47
2023-02-07T19:59:49.271Z,10.27
2023-02-07T20:02:53.649Z,10.17
2023-02-07T20:05:59.856Z,9.20
2023-02-07T20:09:08.341Z,10.40
2023-02-07T20:12:11.825Z,10.83
2023-02-07T20:15:15.065Z,11.30
2023-02-07T20:18:18.621Z,10.70
2023-02-07T20:21:24.407Z,11.47
2023-02-07T20:24:28.846Z,9.97
2023-02-07T20:27:33.083Z,10.80
2023-02-07T20:30:37.573Z,11.13
2023-02-07T20:33:44.090Z,10.37
2023-02-07T20:36:47.342Z,11.37
2023-02-07T20:39:51.065Z,10.63
2023-02-07T20:42:54.300Z,9.83
2023-02-07T20:46:11.204Z,10.27
2023-02-07T20:49:21.992Z,9.90
2023-02-07T20:52:26.312Z,11.23
2023-02-07T20:55:31.066Z,10.23
2023-02-07T20:58:35.284Z,10.63
2023-02-07T21:01:38.194Z,9.90
2023-02-07T21:04:41.269Z,10.43
2023-02-07T21:07:43.888Z,10.93
2023-02-07T21:10:46.525Z,10.57
2023-02-07T21:13:53.859Z,11.10
2023-02-07T21:17:00.219Z,9.77
2023-02-07T21:20:03.982Z,9.83
2023-02-07T21:23:08.007Z,10.10
2023-02-07T21:26:13.101Z,9.73
2023-02-07T21:29:15.802Z,10.50
2023-02-07T21:32:18.114Z,10.00
2023-02-07T21:35:21.346Z,11.30
2023-02-07T21:38:23.795Z,9.47
2023-02-07T21:41:27.661Z,9.70
2023-02-07T21:44:29.880Z,10.40
2023-02-07T21:47:31.858Z,9.97
2023-02-07T21:50:33.863Z,9.47
2023-02-07T21:53:36.864Z,11.30
2023-02-07T21:56:41.202Z,10.70
2023-02-07T21:59:43.226Z,10.33
2023-02-07T22:02:45.293Z,9.47
2023-02-07T22:05:52.592Z,10.30
2023-02-07T22:09:00.481Z,11.30
2023-02-07T22:12:02.733Z,10.73
2023-02-07T22:15:04.879Z,9.90
2023-02-07T22:18:06.942Z,11.03
2023-02-07T22:21:13.055Z,9.93
2023-02-07T22:24:16.744Z,10.97
2023-02-07T22:27:18.748Z,11.20
2023-02-07T22:30:20.779Z,10.43
2023-02-07T22:33:22.791Z,10.23
2023-02-07T22:36:28.436Z,11.60
2023-02-07T22:39:30.494Z,12.17
2023-02-07T22:42:33.685Z,11.50
2023-02-07T22:45:36.648Z,10.37
2023-02-07T22:48:38.733Z,11.50
2023-02-07T22:51:40.780Z,11.07
2023-02-07T22:54:42.783Z,11.07
2023-02-07T22:57:49.248Z,10.50
2023-02-07T23:00:51.223Z,10.77
2023-02-07T23:03:54.218Z,11.30
2023-02-07T23:06:56.172Z,11.10
2023-02-07T23:09:58.205Z,11.57
2023-02-07T23:13:00.354Z,11.50
2023-02-07T23:16:02.503Z,11.60
2023-02-07T23:19:12.692Z,10.73
2023-02-07T23:22:14.704Z,12.07
2023-02-07T23:25:16.755Z,10.90
2023-02-07T23:28:18.833Z,11.87
2023-02-07T23:31:22.404Z,11.03
2023-02-07T23:34:24.479Z,11.17
2023-02-07T23:37:26.522Z,11.90
2023-02-07T23:40:29.215Z,12.07
2023-02-07T23:43:31.523Z,11.00
2023-02-07T23:46:34.926Z,11.43
2023-02-07T23:49:37.019Z,11.30
2023-02-07T23:52:39.089Z,11.10
2023-02-07T23:55:42.744Z,10.80
2023-02-07T23:58:45.492Z,10.77
